Terminal Aerodrome Forecast
Issued by NWS

Home | Current Version | Previous Version | Text Only | Print | Product List | Glossary On
Versions: 1 2 3 4 5 6 7 8 9 10 11 12 13 14 15 16 17 18 19 20 21 22 23 24 25 26 27 28 29 30 31 32 33 34 35 36 37 38 39 40 41 42 43 44 45 46 47
000
FTUS45 KBOU 212212 AAB
TAFAPA
TAF AMD
KAPA 212212Z 2122/2218 33007KT P6SM VCSH BKN060 BKN110
      TEMPO 2123/2202 -SHRA
     FM220300 17011KT P6SM SCT050 BKN080
     FM220800 17013G20KT P6SM SCT080 BKN140
     FM221400 VRB05KT P6SM SCT060 BKN140=

USA.gov is the U.S. government's official web portal to all federal, state and local government web resources and services.